sensor_id;sensor_type;location;lat;lon;timestamp;pressure;altitude;pressure_sealevel;temperature;humidity
10840;BME280;5473;42.706;23.328;2022-08-19T00:00:10;37083.06;;;-142.93;62.48
10840;BME280;5473;42.706;23.328;2022-08-19T00:02:40;37035.31;;;-142.93;62.97
10840;BME280;5473;42.706;23.328;2022-08-19T00:05:07;37001.50;;;-142.93;63.45
10840;BME280;5473;42.706;23.328;2022-08-19T00:07:35;36985.59;;;-142.93;63.61
10840;BME280;5473;42.706;23.328;2022-08-19T00:10:04;36979.63;;;-142.93;63.53
10840;BME280;5473;42.706;23.328;2022-08-19T00:12:31;36973.66;;;-142.93;63.35
10840;BME280;5473;42.706;23.328;2022-08-19T00:14:58;37021.41;;;-142.93;63.09
10840;BME280;5473;42.706;23.328;2022-08-19T00:17:26;36983.59;;;-142.93;63.43
10840;BME280;5473;42.706;23.328;2022-08-19T00:19:53;36939.84;;;-142.93;63.57
10840;BME280;5473;42.706;23.328;2022-08-19T00:22:19;36937.84;;;-142.93;63.82
10840;BME280;5473;42.706;23.328;2022-08-19T00:24:46;36830.41;;;-142.93;64.36
10840;BME280;5473;42.706;23.328;2022-08-19T00:27:13;36802.56;;;-142.93;65.11
10840;BME280;5473;42.706;23.328;2022-08-19T00:29:40;36818.47;;;-142.93;65.06
10840;BME280;5473;42.706;23.328;2022-08-19T00:32:07;36923.91;;;-142.93;63.96
10840;BME280;5473;42.706;23.328;2022-08-19T00:34:35;36945.81;;;-142.93;64.26
10840;BME280;5473;42.706;23.328;2022-08-19T00:37:02;36979.63;;;-142.93;64.14
10840;BME280;5473;42.706;23.328;2022-08-19T00:39:29;36993.56;;;-142.93;63.79
10840;BME280;5473;42.706;23.328;2022-08-19T00:41:55;36977.63;;;-142.93;64.15
10840;BME280;5473;42.706;23.328;2022-08-19T00:44:24;36993.56;;;-142.93;64.06
10840;BME280;5473;42.706;23.328;2022-08-19T00:46:53;37023.38;;;-142.93;64.06
10840;BME280;5473;42.706;23.328;2022-08-19T00:49:22;37055.22;;;-142.93;63.81
10840;BME280;5473;42.706;23.328;2022-08-19T00:51:56;37081.09;;;-142.93;63.78
10840;BME280;5473;42.706;23.328;2022-08-19T00:54:26;37059.19;;;-142.93;64.21
10840;BME280;5473;42.706;23.328;2022-08-19T00:56:53;37005.47;;;-142.93;64.76
10840;BME280;5473;42.706;23.328;2022-08-19T00:59:20;36969.69;;;-142.93;65.45
10840;BME280;5473;42.706;23.328;2022-08-19T01:01:47;36925.91;;;-142.93;65.69
10840;BME280;5473;42.706;23.328;2022-08-19T01:04:14;36878.16;;;-142.93;66.14
10840;BME280;5473;42.706;23.328;2022-08-19T01:06:41;36860.25;;;-142.93;66.42
10840;BME280;5473;42.706;23.328;2022-08-19T01:09:10;36818.47;;;-142.93;66.97
10840;BME280;5473;42.706;23.328;2022-08-19T01:11:40;36665.28;;;-142.93;68.00
10840;BME280;5473;42.706;23.328;2022-08-19T01:14:10;36581.75;;;-142.93;68.07
10840;BME280;5473;42.706;23.328;2022-08-19T01:16:38;36571.78;;;-142.93;68.45
10840;BME280;5473;42.706;23.328;2022-08-19T01:19:10;36502.16;;;-142.93;68.78
10840;BME280;5473;42.706;23.328;2022-08-19T01:21:42;36388.78;;;-142.93;69.26
10840;BME280;5473;42.706;23.328;2022-08-19T01:24:12;36068.53;;;-142.93;70.39
10840;BME280;5473;42.706;23.328;2022-08-19T01:26:40;35895.50;;;-142.93;70.71
10840;BME280;5473;42.706;23.328;2022-08-19T01:29:09;35855.72;;;-142.93;70.89
10840;BME280;5473;42.706;23.328;2022-08-19T01:31:36;35708.56;;;-142.93;71.21
10840;BME280;5473;42.706;23.328;2022-08-19T01:34:05;35573.31;;;-142.93;71.75
10840;BME280;5473;42.706;23.328;2022-08-19T01:36:35;35525.59;;;-142.93;71.49
10840;BME280;5473;42.706;23.328;2022-08-19T01:39:08;35384.41;;;-142.93;72.22
10840;BME280;5473;42.706;23.328;2022-08-19T01:41:37;35104.03;;;-142.93;72.69
10840;BME280;5473;42.706;23.328;2022-08-19T01:44:05;35010.56;;;-142.93;72.82
10840;BME280;5473;42.706;23.328;2022-08-19T01:46:33;34426.03;;;-142.93;73.81
10840;BME280;5473;42.706;23.328;2022-08-19T01:49:00;34201.41;;;-142.93;74.19
10840;BME280;5473;42.706;23.328;2022-08-19T01:51:27;33873.44;;;-142.93;74.40
10840;BME280;5473;42.706;23.328;2022-08-19T01:53:56;33883.38;;;-142.93;74.38
10840;BME280;5473;42.706;23.328;2022-08-19T01:56:23;33764.09;;;-142.93;74.64
10840;BME280;5473;42.706;23.328;2022-08-19T01:58:55;33577.28;;;-142.93;74.88
10840;BME280;5473;42.706;23.328;2022-08-19T02:01:24;33388.47;;;-142.93;75.10
10840;BME280;5473;42.706;23.328;2022-08-19T02:03:51;32826.09;;;-142.93;75.61
10840;BME280;5473;42.706;23.328;2022-08-19T02:06:19;32993.00;;;-142.93;75.47
10840;BME280;5473;42.706;23.328;2022-08-19T02:08:46;32696.94;;;-142.93;75.58
10840;BME280;5473;42.706;23.328;2022-08-19T02:11:19;32625.41;;;-142.93;75.74
10840;BME280;5473;42.706;23.328;2022-08-19T02:13:47;32537.97;;;-142.93;75.68
10840;BME280;5473;42.706;23.328;2022-08-19T02:16:16;32526.06;;;-142.93;75.60
10840;BME280;5473;42.706;23.328;2022-08-19T02:18:43;32534.00;;;-142.93;75.75
10840;BME280;5473;42.706;23.328;2022-08-19T02:21:10;32039.31;;;-142.93;76.20
10840;BME280;5473;42.706;23.328;2022-08-19T02:23:38;31520.84;;;-142.93;76.37
10840;BME280;5473;42.706;23.328;2022-08-19T02:26:05;30647.00;;;-142.93;77.02
10840;BME280;5473;42.706;23.328;2022-08-19T02:28:32;29443.84;;;-142.93;77.63
10840;BME280;5473;42.706;23.328;2022-08-19T02:30:59;26844.44;;;-142.93;78.99
10840;BME280;5473;42.706;23.328;2022-08-19T02:33:29;22499.44;;;-142.93;79.86
10840;BME280;5473;42.706;23.328;2022-08-19T02:35:56;20725.03;;;-142.93;80.50
10840;BME280;5473;42.706;23.328;2022-08-19T02:38:23;18698.25;;;-142.93;81.33
10840;BME280;5473;42.706;23.328;2022-08-19T02:40:53;17179.00;;;-142.93;81.94
10840;BME280;5473;42.706;23.328;2022-08-19T02:43:21;15660.47;;;-142.93;82.49
10840;BME280;5473;42.706;23.328;2022-08-19T02:45:48;13636.81;;;-142.93;83.32
10840;BME280;5473;42.706;23.328;2022-08-19T02:48:17;12119.88;;;-142.93;84.07
10840;BME280;5473;42.706;23.328;2022-08-19T02:50:47;11108.97;;;-142.93;84.41
10840;BME280;5473;42.706;23.328;2022-08-19T02:53:16;10856.28;;;-142.93;84.56
10840;BME280;5473;42.706;23.328;2022-08-19T02:55:44;10098.38;;;-142.93;84.94
10840;BME280;5473;42.706;23.328;2022-08-19T02:58:11;9593.19;;;-142.93;85.29
10840;BME280;5473;42.706;23.328;2022-08-19T03:00:42;9593.19;;;-142.93;85.24
10840;BME280;5473;42.706;23.328;2022-08-19T03:03:10;9845.78;;;-142.93;85.36
10840;BME280;5473;42.706;23.328;2022-08-19T03:05:36;9088.09;;;-142.93;85.54
10840;BME280;5473;42.706;23.328;2022-08-19T03:08:05;8835.56;;;-142.93;85.81
10840;BME280;5473;42.706;23.328;2022-08-19T03:10:32;8583.06;;;-142.93;85.79
10840;BME280;5473;42.706;23.328;2022-08-19T03:12:59;7573.25;;;-142.93;86.39
10840;BME280;5473;42.706;23.328;2022-08-19T03:15:25;7320.84;;;-142.93;86.33
10840;BME280;5473;42.706;23.328;2022-08-19T03:17:52;6816.09;;;-142.93;86.58
10840;BME280;5473;42.706;23.328;2022-08-19T03:20:19;6311.41;;;-142.93;86.99
10840;BME280;5473;42.706;23.328;2022-08-19T03:22:46;5554.56;;;-142.93;87.28
10840;BME280;5473;42.706;23.328;2022-08-19T03:25:14;4545.66;;;-142.93;87.51
10840;BME280;5473;42.706;23.328;2022-08-19T03:27:42;4041.34;;;-142.93;87.69
10840;BME280;5473;42.706;23.328;2022-08-19T03:30:10;3537.09;;;-142.93;87.97
10840;BME280;5473;42.706;23.328;2022-08-19T03:32:37;3032.91;;;-142.93;88.18
10840;BME280;5473;42.706;23.328;2022-08-19T03:35:04;2780.84;;;-142.93;88.40
10840;BME280;5473;42.706;23.328;2022-08-19T03:37:31;2528.81;;;-142.93;88.42
10840;BME280;5473;42.706;23.328;2022-08-19T03:39:58;2276.78;;;-142.93;88.46
10840;BME280;5473;42.706;23.328;2022-08-19T03:42:26;2780.84;;;-142.93;88.11
10840;BME280;5473;42.706;23.328;2022-08-19T03:44:53;3284.97;;;-142.93;87.96
10840;BME280;5473;42.706;23.328;2022-08-19T03:47:20;3537.09;;;-142.93;87.84
10840;BME280;5473;42.706;23.328;2022-08-19T03:49:47;4041.34;;;-142.93;87.40
10840;BME280;5473;42.706;23.328;2022-08-19T03:52:14;4293.50;;;-142.93;87.17
10840;BME280;5473;42.706;23.328;2022-08-19T03:54:41;4797.84;;;-142.93;86.87
10840;BME280;5473;42.706;23.328;2022-08-19T03:57:08;5302.28;;;-142.93;86.65
10840;BME280;5473;42.706;23.328;2022-08-19T03:59:37;6059.09;;;-142.93;86.50
10840;BME280;5473;42.706;23.328;2022-08-19T04:02:07;6311.41;;;-142.93;86.03
10840;BME280;5473;42.706;23.328;2022-08-19T04:04:35;7068.47;;;-142.93;85.78
10840;BME280;5473;42.706;23.328;2022-08-19T04:07:03;7320.84;;;-142.93;85.49
10840;BME280;5473;42.706;23.328;2022-08-19T04:09:29;7825.69;;;-142.93;85.08
10840;BME280;5473;42.706;23.328;2022-08-19T04:11:57;8583.06;;;-142.93;84.98
10840;BME280;5473;42.706;23.328;2022-08-19T04:14:26;9845.78;;;-142.93;84.23
10840;BME280;5473;42.706;23.328;2022-08-19T04:16:56;10856.28;;;-142.93;83.85
10840;BME280;5473;42.706;23.328;2022-08-19T04:19:23;12372.66;;;-142.93;83.15
10840;BME280;5473;42.706;23.328;2022-08-19T04:21:52;12878.25;;;-142.93;82.92
10840;BME280;5473;42.706;23.328;2022-08-19T04:24:20;14142.59;;;-142.93;82.26
10840;BME280;5473;42.706;23.328;2022-08-19T04:26:48;14901.44;;;-142.93;81.75
10840;BME280;5473;42.706;23.328;2022-08-19T04:29:18;15660.47;;;-142.93;81.54
10840;BME280;5473;42.706;23.328;2022-08-19T04:31:48;15660.47;;;-142.93;81.28
10840;BME280;5473;42.706;23.328;2022-08-19T04:34:19;16672.75;;;-142.93;80.97
10840;BME280;5473;42.706;23.328;2022-08-19T04:36:48;17685.34;;;-142.93;80.60
10840;BME280;5473;42.706;23.328;2022-08-19T04:39:18;17432.19;;;-142.93;80.69
10840;BME280;5473;42.706;23.328;2022-08-19T04:41:46;17685.34;;;-142.93;80.42
10840;BME280;5473;42.706;23.328;2022-08-19T04:44:31;16925.88;;;-142.93;80.69
10840;BME280;5473;42.706;23.328;2022-08-19T04:46:58;16672.75;;;-142.93;80.93
10840;BME280;5473;42.706;23.328;2022-08-19T04:49:26;16166.56;;;-142.93;80.92
10840;BME280;5473;42.706;23.328;2022-08-19T04:51:54;16925.88;;;-142.93;80.53
10840;BME280;5473;42.706;23.328;2022-08-19T04:54:24;19458.16;;;-142.93;79.67
10840;BME280;5473;42.706;23.328;2022-08-19T04:56:52;18951.53;;;-142.93;80.00
10840;BME280;5473;42.706;23.328;2022-08-19T04:59:20;18191.78;;;-142.93;79.98
10840;BME280;5473;42.706;23.328;2022-08-19T05:01:48;18951.53;;;-142.93;79.67
10840;BME280;5473;42.706;23.328;2022-08-19T05:04:17;19204.84;;;-142.93;79.69
10840;BME280;5473;42.706;23.328;2022-08-19T05:06:46;19964.84;;;-142.93;79.42
10840;BME280;5473;42.706;23.328;2022-08-19T05:09:14;20471.59;;;-142.93;79.19
10840;BME280;5473;42.706;23.328;2022-08-19T05:11:43;22245.91;;;-142.93;78.48
10840;BME280;5473;42.706;23.328;2022-08-19T05:14:11;23359.28;;;-142.93;78.11
10840;BME280;5473;42.706;23.328;2022-08-19T05:16:39;24572.13;;;-142.93;77.76
10840;BME280;5473;42.706;23.328;2022-08-19T05:19:06;26322.81;;;-142.93;77.40
10840;BME280;5473;42.706;23.328;2022-08-19T05:21:52;28645.94;;;-142.93;76.45
10840;BME280;5473;42.706;23.328;2022-08-19T05:24:36;30071.16;;;-142.93;75.91
10840;BME280;5473;42.706;23.328;2022-08-19T05:27:04;30968.69;;;-142.93;75.56
10840;BME280;5473;42.706;23.328;2022-08-19T05:29:32;31647.97;;;-142.93;75.31
10840;BME280;5473;42.706;23.328;2022-08-19T05:32:01;32446.56;;;-142.93;74.94
10840;BME280;5473;42.706;23.328;2022-08-19T05:34:28;32579.69;;;-142.93;74.99
10840;BME280;5473;42.706;23.328;2022-08-19T05:36:58;32373.06;;;-142.93;75.16
10840;BME280;5473;42.706;23.328;2022-08-19T05:39:27;32140.63;;;-142.93;75.42
10840;BME280;5473;42.706;23.328;2022-08-19T05:41:56;32712.81;;;-142.93;74.83
10840;BME280;5473;42.706;23.328;2022-08-19T05:44:24;33587.22;;;-142.93;73.98
10840;BME280;5473;42.706;23.328;2022-08-19T05:46:51;33855.53;;;-142.93;73.68
10840;BME280;5473;42.706;23.328;2022-08-19T05:49:21;34509.53;;;-142.93;72.43
10840;BME280;5473;42.706;23.328;2022-08-19T05:51:48;35171.63;;;-142.93;71.00
10840;BME280;5473;42.706;23.328;2022-08-19T05:54:17;35541.50;;;-142.93;69.50
10840;BME280;5473;42.706;23.328;2022-08-19T05:56:44;35989.00;;;-142.93;67.37
10840;BME280;5473;42.706;23.328;2022-08-19T05:59:14;36408.69;;;-142.93;64.21
10840;BME280;5473;42.706;23.328;2022-08-19T06:01:43;36518.09;;;-142.93;60.71
10840;BME280;5473;42.706;23.328;2022-08-19T06:04:11;36709.06;;;-142.93;55.19
10840;BME280;5473;42.706;23.328;2022-08-19T06:06:39;36717.00;;;-142.93;51.51
10840;BME280;5473;42.706;23.328;2022-08-19T06:09:07;36657.34;;;-142.93;47.68
10840;BME280;5473;42.706;23.328;2022-08-19T06:11:40;36563.84;;;-142.93;44.43
10840;BME280;5473;42.706;23.328;2022-08-19T06:14:13;36444.47;;;-142.93;42.14
10840;BME280;5473;42.706;23.328;2022-08-19T06:16:41;36382.81;;;-142.93;40.72
10840;BME280;5473;42.706;23.328;2022-08-19T06:19:10;36331.09;;;-142.93;39.23
10840;BME280;5473;42.706;23.328;2022-08-19T06:21:39;36223.69;;;-142.93;38.01
10840;BME280;5473;42.706;23.328;2022-08-19T06:24:08;36335.06;;;-142.93;38.45
10840;BME280;5473;42.706;23.328;2022-08-19T06:26:40;36148.09;;;-142.93;36.90
10840;BME280;5473;42.706;23.328;2022-08-19T06:29:10;36086.44;;;-142.93;36.13
10840;BME280;5473;42.706;23.328;2022-08-19T06:31:41;35981.03;;;-142.93;35.78
10840;BME280;5473;42.706;23.328;2022-08-19T06:34:08;35839.81;;;-142.93;34.45
10840;BME280;5473;42.706;23.328;2022-08-19T06:36:37;35811.97;;;-142.93;34.50
10840;BME280;5473;42.706;23.328;2022-08-19T06:39:08;35909.44;;;-142.93;34.34
10840;BME280;5473;42.706;23.328;2022-08-19T06:41:39;35901.47;;;-142.93;34.30
10840;BME280;5473;42.706;23.328;2022-08-19T06:44:07;35843.78;;;-142.93;34.29
10840;BME280;5473;42.706;23.328;2022-08-19T06:46:34;35825.91;;;-142.93;33.79
10840;BME280;5473;42.706;23.328;2022-08-19T06:49:02;35947.22;;;-142.93;33.91
10840;BME280;5473;42.706;23.328;2022-08-19T06:51:29;35837.84;;;-142.93;34.05
10840;BME280;5473;42.706;23.328;2022-08-19T06:53:57;35788.09;;;-142.93;33.84
10840;BME280;5473;42.706;23.328;2022-08-19T06:56:27;35694.63;;;-142.93;33.74
10840;BME280;5473;42.706;23.328;2022-08-19T06:58:58;35730.44;;;-142.93;33.61
10840;BME280;5473;42.706;23.328;2022-08-19T07:01:25;35770.22;;;-142.93;33.57
10840;BME280;5473;42.706;23.328;2022-08-19T07:03:52;35660.81;;;-142.93;33.26
10840;BME280;5473;42.706;23.328;2022-08-19T07:06:19;35621.06;;;-142.93;33.24
10840;BME280;5473;42.706;23.328;2022-08-19T07:08:47;35507.69;;;-142.93;32.60
10840;BME280;5473;42.706;23.328;2022-08-19T07:11:16;35332.69;;;-142.93;31.84
10840;BME280;5473;42.706;23.328;2022-08-19T07:13:44;35499.75;;;-142.93;32.25
10840;BME280;5473;42.706;23.328;2022-08-19T07:16:15;35613.09;;;-142.93;32.88
10840;BME280;5473;42.706;23.328;2022-08-19T07:18:42;35493.78;;;-142.93;32.27
10840;BME280;5473;42.706;23.328;2022-08-19T07:21:11;35497.75;;;-142.93;32.74
10840;BME280;5473;42.706;23.328;2022-08-19T07:23:39;35404.28;;;-142.93;32.11
10840;BME280;5473;42.706;23.328;2022-08-19T07:26:07;35221.34;;;-142.93;31.59
10840;BME280;5473;42.706;23.328;2022-08-19T07:28:34;34954.91;;;-142.93;31.04
10840;BME280;5473;42.706;23.328;2022-08-19T07:31:05;34791.88;;;-142.93;30.40
10840;BME280;5473;42.706;23.328;2022-08-19T07:33:34;34640.75;;;-142.93;29.70
10840;BME280;5473;42.706;23.328;2022-08-19T07:36:03;34771.97;;;-142.93;30.14
10840;BME280;5473;42.706;23.328;2022-08-19T07:38:31;34712.34;;;-142.93;30.00
10840;BME280;5473;42.706;23.328;2022-08-19T07:40:57;34789.88;;;-142.93;29.64
10840;BME280;5473;42.706;23.328;2022-08-19T07:43:24;35111.97;;;-142.93;30.58
10840;BME280;5473;42.706;23.328;2022-08-19T07:45:52;35050.34;;;-142.93;30.45
10840;BME280;5473;42.706;23.328;2022-08-19T07:48:21;35078.19;;;-142.93;30.54
10840;BME280;5473;42.706;23.328;2022-08-19T07:50:51;34799.81;;;-142.93;29.89
10840;BME280;5473;42.706;23.328;2022-08-19T07:53:19;34859.47;;;-142.93;29.86
10840;BME280;5473;42.706;23.328;2022-08-19T07:55:47;34847.53;;;-142.93;29.64
10840;BME280;5473;42.706;23.328;2022-08-19T07:58:17;34712.34;;;-142.93;29.66
10840;BME280;5473;42.706;23.328;2022-08-19T08:00:47;34020.53;;;-142.93;28.19
10840;BME280;5473;42.706;23.328;2022-08-19T08:03:15;33674.66;;;-142.93;27.44
10840;BME280;5473;42.706;23.328;2022-08-19T08:05:43;33609.06;;;-142.93;27.12
10840;BME280;5473;42.706;23.328;2022-08-19T08:08:34;33638.88;;;-142.93;26.90
10840;BME280;5473;42.706;23.328;2022-08-19T08:11:19;33356.66;;;-142.93;26.53
10840;BME280;5473;42.706;23.328;2022-08-19T08:13:47;33018.84;;;-142.93;26.10
10840;BME280;5473;42.706;23.328;2022-08-19T08:16:14;32873.78;;;-142.93;25.97
10840;BME280;5473;42.706;23.328;2022-08-19T08:18:41;33048.63;;;-142.93;26.08
10840;BME280;5473;42.706;23.328;2022-08-19T08:21:09;32766.47;;;-142.93;25.59
10840;BME280;5473;42.706;23.328;2022-08-19T08:23:37;32216.13;;;-142.93;25.30
10840;BME280;5473;42.706;23.328;2022-08-19T08:26:04;32289.63;;;-142.93;24.74
10840;BME280;5473;42.706;23.328;2022-08-19T08:28:30;32259.81;;;-142.93;25.07
10840;BME280;5473;42.706;23.328;2022-08-19T08:30:57;32146.56;;;-142.93;24.52
10840;BME280;5473;42.706;23.328;2022-08-19T08:33:27;32208.16;;;-142.93;24.62
10840;BME280;5473;42.706;23.328;2022-08-19T08:35:55;31371.88;;;-142.93;23.90
10840;BME280;5473;42.706;23.328;2022-08-19T08:38:22;30899.19;;;-142.93;23.41
10840;BME280;5473;42.706;23.328;2022-08-19T08:40:53;31914.16;;;-142.93;23.71
10840;BME280;5473;42.706;23.328;2022-08-19T08:43:26;32106.84;;;-142.93;23.95
10840;BME280;5473;42.706;23.328;2022-08-19T08:46:00;32977.09;;;-142.93;24.85
10840;BME280;5473;42.706;23.328;2022-08-19T08:48:35;32629.38;;;-142.93;24.38
10840;BME280;5473;42.706;23.328;2022-08-19T08:51:09;32595.59;;;-142.93;24.54
10840;BME280;5473;42.706;23.328;2022-08-19T08:53:37;32176.38;;;-142.93;24.10
10840;BME280;5473;42.706;23.328;2022-08-19T08:56:08;31781.06;;;-142.93;23.53
10840;BME280;5473;42.706;23.328;2022-08-19T08:58:44;31463.25;;;-142.93;23.10
10840;BME280;5473;42.706;23.328;2022-08-19T09:01:14;31361.94;;;-142.93;22.50
10840;BME280;5473;42.706;23.328;2022-08-19T09:03:42;31753.25;;;-142.93;22.79
10840;BME280;5473;42.706;23.328;2022-08-19T09:06:14;31121.63;;;-142.93;22.33
10840;BME280;5473;42.706;23.328;2022-08-19T09:08:48;31099.78;;;-142.93;22.18
10840;BME280;5473;42.706;23.328;2022-08-19T09:11:28;29999.69;;;-142.93;21.39
10840;BME280;5473;42.706;23.328;2022-08-19T09:14:04;30017.56;;;-142.93;21.45
10840;BME280;5473;42.706;23.328;2022-08-19T09:16:34;31399.69;;;-142.93;22.35
10840;BME280;5473;42.706;23.328;2022-08-19T09:19:04;33118.19;;;-142.93;23.57
10840;BME280;5473;42.706;23.328;2022-08-19T09:21:32;33362.63;;;-142.93;23.73
10840;BME280;5473;42.706;23.328;2022-08-19T09:24:00;32748.59;;;-142.93;23.27
10840;BME280;5473;42.706;23.328;2022-08-19T09:26:29;32069.09;;;-142.93;22.64
10840;BME280;5473;42.706;23.328;2022-08-19T09:28:58;31272.56;;;-142.93;22.05
10840;BME280;5473;42.706;23.328;2022-08-19T09:31:28;30803.88;;;-142.93;21.77
10840;BME280;5473;42.706;23.328;2022-08-19T09:33:55;30315.38;;;-142.93;21.17
10840;BME280;5473;42.706;23.328;2022-08-19T09:36:24;30116.84;;;-142.93;20.79
10840;BME280;5473;42.706;23.328;2022-08-19T09:38:55;31318.25;;;-142.93;21.41
10840;BME280;5473;42.706;23.328;2022-08-19T09:41:23;30603.31;;;-142.93;21.03
10840;BME280;5473;42.706;23.328;2022-08-19T09:43:54;29821.03;;;-142.93;20.78
10840;BME280;5473;42.706;23.328;2022-08-19T09:46:23;30154.56;;;-142.93;20.71
10840;BME280;5473;42.706;23.328;2022-08-19T09:48:50;30851.53;;;-142.93;21.19
10840;BME280;5473;42.706;23.328;2022-08-19T09:51:20;31798.94;;;-142.93;21.74
10840;BME280;5473;42.706;23.328;2022-08-19T09:53:49;31377.84;;;-142.93;21.08
10840;BME280;5473;42.706;23.328;2022-08-19T09:56:18;31516.88;;;-142.93;21.05
10840;BME280;5473;42.706;23.328;2022-08-19T09:58:45;31953.88;;;-142.93;21.68
10840;BME280;5473;42.706;23.328;2022-08-19T10:01:19;31306.34;;;-142.93;21.10
10840;BME280;5473;42.706;23.328;2022-08-19T10:03:48;31371.88;;;-142.93;21.10
10840;BME280;5473;42.706;23.328;2022-08-19T10:06:18;30774.09;;;-142.93;20.73
10840;BME280;5473;42.706;23.328;2022-08-19T10:08:45;31318.25;;;-142.93;20.79
10840;BME280;5473;42.706;23.328;2022-08-19T10:11:13;31634.06;;;-142.93;21.12
10840;BME280;5473;42.706;23.328;2022-08-19T10:13:43;31071.97;;;-142.93;20.92
10840;BME280;5473;42.706;23.328;2022-08-19T10:16:11;30964.72;;;-142.93;20.87
10840;BME280;5473;42.706;23.328;2022-08-19T10:18:40;30261.78;;;-142.93;20.50
10840;BME280;5473;42.706;23.328;2022-08-19T10:21:11;29664.19;;;-142.93;20.14
10840;BME280;5473;42.706;23.328;2022-08-19T10:23:40;29094.50;;;-142.93;20.00
10840;BME280;5473;42.706;23.328;2022-08-19T10:26:13;28969.44;;;-142.93;19.71
10840;BME280;5473;42.706;23.328;2022-08-19T10:28:40;28947.63;;;-142.93;19.92
10840;BME280;5473;42.706;23.328;2022-08-19T10:31:09;28657.84;;;-142.93;19.72
10840;BME280;5473;42.706;23.328;2022-08-19T10:33:37;29475.59;;;-142.93;20.02
10840;BME280;5473;42.706;23.328;2022-08-19T10:36:08;29183.81;;;-142.93;19.92
10840;BME280;5473;42.706;23.328;2022-08-19T10:38:35;29463.69;;;-142.93;19.98
10840;BME280;5473;42.706;23.328;2022-08-19T10:41:12;30559.63;;;-142.93;20.30
10840;BME280;5473;42.706;23.328;2022-08-19T10:43:39;30206.19;;;-142.93;20.23
10840;BME280;5473;42.706;23.328;2022-08-19T10:46:06;29586.75;;;-142.93;20.12
10840;BME280;5473;42.706;23.328;2022-08-19T10:48:33;29938.16;;;-142.93;20.10
10840;BME280;5473;42.706;23.328;2022-08-19T10:51:00;30511.97;;;-142.93;20.49
10840;BME280;5473;42.706;23.328;2022-08-19T10:53:46;30974.66;;;-142.93;20.76
10840;BME280;5473;42.706;23.328;2022-08-19T10:56:13;31326.19;;;-142.93;20.97
10840;BME280;5473;42.706;23.328;2022-08-19T10:58:57;31409.63;;;-142.93;20.87
10840;BME280;5473;42.706;23.328;2022-08-19T11:01:24;32428.69;;;-142.93;21.61
10840;BME280;5473;42.706;23.328;2022-08-19T11:03:51;32843.97;;;-142.93;21.98
10840;BME280;5473;42.706;23.328;2022-08-19T11:06:18;32893.66;;;-142.93;22.24
10840;BME280;5473;42.706;23.328;2022-08-19T11:08:47;33374.56;;;-142.93;22.71
10840;BME280;5473;42.706;23.328;2022-08-19T11:11:14;33271.22;;;-142.93;22.57
10840;BME280;5473;42.706;23.328;2022-08-19T11:13:41;32985.06;;;-142.93;22.51
10840;BME280;5473;42.706;23.328;2022-08-19T11:16:12;32726.72;;;-142.93;22.11
10840;BME280;5473;42.706;23.328;2022-08-19T11:18:43;32536.00;;;-142.93;21.91
10840;BME280;5473;42.706;23.328;2022-08-19T11:21:12;32794.28;;;-142.93;22.33
10840;BME280;5473;42.706;23.328;2022-08-19T11:23:40;33328.84;;;-142.93;22.76
10840;BME280;5473;42.706;23.328;2022-08-19T11:26:08;32675.06;;;-142.93;22.41
10840;BME280;5473;42.706;23.328;2022-08-19T11:28:35;33157.94;;;-142.93;22.41
10840;BME280;5473;42.706;23.328;2022-08-19T11:31:02;32645.25;;;-142.93;22.16
10840;BME280;5473;42.706;23.328;2022-08-19T11:33:30;33046.66;;;-142.93;22.19
10840;BME280;5473;42.706;23.328;2022-08-19T11:35:58;33189.72;;;-142.93;22.62
10840;BME280;5473;42.706;23.328;2022-08-19T11:38:26;33209.59;;;-142.93;22.76
10840;BME280;5473;42.706;23.328;2022-08-19T11:40:57;33340.78;;;-142.93;22.75
10840;BME280;5473;42.706;23.328;2022-08-19T11:43:26;32911.53;;;-142.93;22.33
10840;BME280;5473;42.706;23.328;2022-08-19T11:45:54;33467.97;;;-142.93;22.89
10840;BME280;5473;42.706;23.328;2022-08-19T11:48:21;33267.25;;;-142.93;22.82
10840;BME280;5473;42.706;23.328;2022-08-19T11:50:48;32361.16;;;-142.93;22.24
10840;BME280;5473;42.706;23.328;2022-08-19T11:53:16;32086.97;;;-142.93;21.89
10840;BME280;5473;42.706;23.328;2022-08-19T11:55:44;32734.69;;;-142.93;21.95
10840;BME280;5473;42.706;23.328;2022-08-19T11:58:11;32281.69;;;-142.93;21.84
10840;BME280;5473;42.706;23.328;2022-08-19T12:00:40;32043.28;;;-142.93;21.71
10840;BME280;5473;42.706;23.328;2022-08-19T12:03:07;31663.84;;;-142.93;21.42
10840;BME280;5473;42.706;23.328;2022-08-19T12:05:36;31294.41;;;-142.93;21.23
10840;BME280;5473;42.706;23.328;2022-08-19T12:08:03;31878.38;;;-142.93;21.48
10840;BME280;5473;42.706;23.328;2022-08-19T12:10:30;31949.91;;;-142.93;21.58
10840;BME280;5473;42.706;23.328;2022-08-19T12:12:57;32096.91;;;-142.93;21.64
10840;BME280;5473;42.706;23.328;2022-08-19T12:15:24;32555.84;;;-142.93;22.09
10840;BME280;5473;42.706;23.328;2022-08-19T12:17:54;32406.84;;;-142.93;22.08
10840;BME280;5473;42.706;23.328;2022-08-19T12:20:22;32130.69;;;-142.93;21.91
10840;BME280;5473;42.706;23.328;2022-08-19T12:22:50;32049.22;;;-142.93;21.84
10840;BME280;5473;42.706;23.328;2022-08-19T12:25:17;31653.94;;;-142.93;21.55
10840;BME280;5473;42.706;23.328;2022-08-19T12:27:44;31469.19;;;-142.93;21.38
10840;BME280;5473;42.706;23.328;2022-08-19T12:30:12;31175.25;;;-142.93;21.02
10840;BME280;5473;42.706;23.328;2022-08-19T12:32:39;31121.63;;;-142.93;20.97
10840;BME280;5473;42.706;23.328;2022-08-19T12:35:08;32009.50;;;-142.93;21.55
10840;BME280;5473;42.706;23.328;2022-08-19T12:37:36;32039.31;;;-142.93;21.66
10840;BME280;5473;42.706;23.328;2022-08-19T12:40:04;32784.34;;;-142.93;22.36
10840;BME280;5473;42.706;23.328;2022-08-19T12:42:31;32710.84;;;-142.93;22.33
10840;BME280;5473;42.706;23.328;2022-08-19T12:44:57;32655.19;;;-142.93;21.97
10840;BME280;5473;42.706;23.328;2022-08-19T12:47:24;32708.84;;;-142.93;22.12